Time;durP1;ratioP1;P1;durP2;ratioP2;P2;SDS_P1;SDS_P2;PMS_P1;PMS_P2;Temp;Humidity;BMP_temperature;BMP_pressure;BME280_temperature;BME280_humidity;BME280_pressure;Samples;Min_cycle;Max_cycle;Signal;HPM_P1;HPM_P2
2022/05/12 00:00:37;;;;;;;;;35.33;34.33;23.50;40.60;;;;;;5037290;28;8766;-72
2022/05/12 00:03:05;;;;;;;;;32.67;31.67;23.50;40.40;;;;;;5037131;28;8817;-72
2022/05/12 00:05:31;;;;;;;;;31.67;31.67;23.40;41.60;;;;;;5037137;28;8754;-73
2022/05/12 00:07:57;;;;;;;;;38.33;36.33;23.40;41.80;;;;;;5037425;28;8835;-73
2022/05/12 00:10:25;;;;;;;;;34.33;32.33;23.40;41.00;;;;;;5047274;28;8783;-73
2022/05/12 00:12:52;;;;;;;;;38.00;35.33;23.40;41.80;;;;;;5036885;28;8774;-73
2022/05/12 00:15:24;;;;;;;;;41.33;37.33;23.30;41.60;;;;;;5036879;28;8769;-73
2022/05/12 00:17:50;;;;;;;;;36.67;34.00;23.30;41.70;;;;;;5037217;28;8797;-73
2022/05/12 00:20:21;;;;;;;;;36.33;34.00;23.20;41.70;;;;;;5036814;28;8777;-73
2022/05/12 00:22:47;;;;;;;;;30.67;30.67;23.10;42.10;;;;;;5036769;28;8774;-73
2022/05/12 00:25:21;;;;;;;;;39.33;35.67;23.20;42.00;;;;;;5036901;28;9431;-73
2022/05/12 00:27:46;;;;;;;;;36.33;34.67;23.30;42.10;;;;;;5035395;28;8785;-73
2022/05/12 00:30:13;;;;;;;;;41.00;36.33;23.20;42.00;;;;;;5031697;28;8824;-73
2022/05/12 00:32:44;;;;;;;;;33.33;32.33;23.10;42.30;;;;;;5036031;28;8838;-73
2022/05/12 00:35:13;;;;;;;;;54.50;45.75;23.00;42.40;;;;;;5036610;28;8781;-73
2022/05/12 00:37:38;;;;;;;;;49.00;42.25;22.90;42.30;;;;;;5036797;28;8754;-73
2022/05/12 00:40:06;;;;;;;;;48.50;41.25;22.90;42.50;;;;;;5036747;28;9469;-73
2022/05/12 00:42:31;;;;;;;;;41.75;35.25;23.00;43.00;;;;;;5036418;28;8758;-73
2022/05/12 00:44:57;;;;;;;;;38.75;34.75;22.90;43.00;;;;;;5036630;28;8789;-73
2022/05/12 00:47:23;;;;;;;;;39.75;37.25;22.90;42.90;;;;;;5036557;28;8878;-73
2022/05/12 00:49:52;;;;;;;;;31.67;31.67;22.80;43.20;;;;;;5036586;28;8796;-73
2022/05/12 00:52:26;;;;;;;;;36.00;34.00;22.80;43.00;;;;;;5036230;28;8781;-73
2022/05/12 00:55:04;;;;;;;;;37.67;34.00;22.60;42.80;;;;;;5036264;28;8781;-73
2022/05/12 00:57:46;;;;;;;;;32.33;31.00;22.60;43.10;;;;;;5035505;28;8804;-73
2022/05/12 01:00:16;;;;;;;;;36.67;34.33;22.60;43.00;;;;;;5036122;28;8888;-73
2022/05/12 01:02:46;;;;;;;;;35.67;34.00;22.50;43.00;;;;;;5035887;28;8830;-73
2022/05/12 01:05:14;;;;;;;;;39.00;36.33;22.50;43.10;;;;;;5036014;28;8798;-73
2022/05/12 01:07:40;;;;;;;;;31.33;30.33;22.60;43.10;;;;;;5035853;28;8798;-73
2022/05/12 01:10:09;;;;;;;;;36.00;34.33;22.60;43.20;;;;;;5036258;28;8831;-73
2022/05/12 01:12:38;;;;;;;;;42.00;37.33;22.60;43.10;;;;;;5035773;28;8847;-73
2022/05/12 01:15:05;;;;;;;;;40.33;35.00;22.70;43.40;;;;;;5035800;28;8896;-73
2022/05/12 01:17:30;;;;;;;;;44.00;39.00;22.60;43.40;;;;;;5035492;28;8908;-73
2022/05/12 01:19:56;;;;;;;;;44.75;38.75;22.60;44.20;;;;;;5035611;28;8774;-73
2022/05/12 01:22:42;;;;;;;;;42.00;37.67;22.50;45.20;;;;;;5035668;28;8774;-73
2022/05/12 01:25:15;;;;;;;;;51.25;44.25;22.50;45.90;;;;;;5035696;28;8781;-73
2022/05/12 01:27:42;;;;;;;;;43.50;37.75;22.40;46.20;;;;;;5033553;28;8805;-73
2022/05/12 01:30:09;;;;;;;;;39.50;36.25;22.30;46.50;;;;;;5035159;28;8800;-73
2022/05/12 01:32:34;;;;;;;;;47.25;41.25;22.30;46.70;;;;;;5034771;28;8813;-73
2022/05/12 01:35:01;;;;;;;;;41.00;37.25;22.30;46.60;;;;;;5035115;28;9489;-73
2022/05/12 01:37:26;;;;;;;;;43.25;38.25;22.40;46.40;;;;;;5035393;28;8773;-73
2022/05/12 01:39:53;;;;;;;;;42.25;38.75;22.40;46.40;;;;;;5035217;28;8801;-73
2022/05/12 01:42:20;;;;;;;;;45.25;39.75;22.30;46.50;;;;;;5035320;28;8761;-73
2022/05/12 01:44:46;;;;;;;;;48.50;40.75;22.30;46.60;;;;;;5035467;28;8775;-73
2022/05/12 01:47:13;;;;;;;;;49.25;42.25;22.30;46.80;;;;;;5035372;28;8805;-73
2022/05/12 01:49:39;;;;;;;;;44.75;39.75;22.30;46.90;;;;;;5035318;28;8793;-73
2022/05/12 01:52:05;;;;;;;;;50.00;42.75;22.30;46.90;;;;;;5034853;28;9481;-74
2022/05/12 01:54:31;;;;;;;;;40.75;37.25;22.30;46.90;;;;;;5035007;28;8769;-73
2022/05/12 01:56:57;;;;;;;;;40.75;36.75;22.20;46.70;;;;;;5034995;28;8792;-73
2022/05/12 01:59:24;;;;;;;;;48.50;42.25;22.10;47.10;;;;;;5034935;28;8769;-73
2022/05/12 02:01:50;;;;;;;;;44.50;39.75;22.10;48.30;;;;;;5035052;28;8804;-73
2022/05/12 02:04:17;;;;;;;;;35.25;33.75;22.10;47.20;;;;;;5035204;28;8797;-73
2022/05/12 02:06:43;;;;;;;;;41.75;37.25;22.00;46.30;;;;;;5035121;28;8839;-73
2022/05/12 02:09:10;;;;;;;;;40.00;35.50;22.00;45.80;;;;;;5033913;28;8774;-73
2022/05/12 02:11:36;;;;;;;;;42.50;37.00;22.00;45.80;;;;;;5034940;28;8912;-73
2022/05/12 02:14:04;;;;;;;;;39.00;35.25;21.90;45.70;;;;;;5034685;28;8782;-73
2022/05/12 02:16:31;;;;;;;;;34.00;31.75;21.90;45.50;;;;;;5034767;28;8797;-73
2022/05/12 02:18:57;;;;;;;;;36.67;34.33;21.80;45.20;;;;;;5034759;28;8834;-73
2022/05/12 02:21:23;;;;;;;;;42.00;36.75;21.70;45.10;;;;;;5034732;28;8860;-73
2022/05/12 02:23:48;;;;;;;;;38.25;35.00;21.80;44.90;;;;;;5034606;28;8769;-73
2022/05/12 02:26:14;;;;;;;;;36.00;32.75;21.80;45.50;;;;;;5034548;28;8921;-73
2022/05/12 02:28:41;;;;;;;;;39.00;35.75;21.80;44.30;;;;;;5034534;28;8850;-73
2022/05/12 02:31:07;;;;;;;;;35.75;34.50;21.80;44.30;;;;;;5034569;28;8780;-73
2022/05/12 02:33:33;;;;;;;;;37.75;34.25;21.80;44.50;;;;;;5033943;28;8873;-73
2022/05/12 02:35:59;;;;;;;;;37.00;34.00;21.70;44.60;;;;;;5034741;28;8769;-73
2022/05/12 02:38:25;;;;;;;;;38.50;34.75;21.70;44.70;;;;;;5034770;28;8803;-73
2022/05/12 02:40:50;;;;;;;;;37.50;34.50;21.60;45.10;;;;;;5034452;28;8762;-73
2022/05/12 02:43:25;;;;;;;;;39.75;36.00;21.50;45.50;;;;;;5034580;28;9467;-73
2022/05/12 02:46:21;;;;;;;;;41.25;38.00;21.60;45.70;;;;;;5033445;28;8805;-72
2022/05/12 02:48:47;;;;;;;;;35.75;33.25;21.60;45.40;;;;;;4992673;28;8822;-73
2022/05/12 02:51:14;;;;;;;;;35.00;33.00;21.60;45.50;;;;;;4992881;28;8808;-73
2022/05/12 02:53:40;;;;;;;;;39.67;35.67;21.60;45.40;;;;;;4992509;28;8784;-73
2022/05/12 02:56:08;;;;;;;;;43.25;39.00;21.50;45.50;;;;;;4992805;28;8908;-72
2022/05/12 02:58:34;;;;;;;;;38.00;35.00;21.50;45.30;;;;;;4992697;28;8810;-73
2022/05/12 03:01:00;;;;;;;;;29.00;29.00;21.50;45.10;;;;;;4992817;28;8776;-72
2022/05/12 03:03:26;;;;;;;;;37.50;34.50;21.50;45.20;;;;;;4992529;28;8839;-72
2022/05/12 03:05:53;;;;;;;;;45.00;40.00;21.60;45.50;;;;;;4992618;28;8844;-71
2022/05/12 03:08:19;;;;;;;;;41.50;37.50;21.60;45.30;;;;;;4992787;28;8768;-72
2022/05/12 03:10:45;;;;;;;;;35.67;34.33;21.60;45.20;;;;;;4992696;28;8857;-72
2022/05/12 03:13:11;;;;;;;;;42.50;38.50;21.60;45.30;;;;;;4992161;28;8796;-73
2022/05/12 03:15:37;;;;;;;;;45.75;40.25;21.40;45.70;;;;;;4992693;28;8931;-72
2022/05/12 03:18:04;;;;;;;;;36.25;33.00;21.30;45.90;;;;;;4992584;28;8808;-73
2022/05/12 03:20:31;;;;;;;;;43.00;39.00;21.50;46.00;;;;;;4992866;28;8805;-72
2022/05/12 03:22:58;;;;;;;;;38.00;34.00;21.50;45.30;;;;;;5011816;28;8805;-72
2022/05/12 03:25:24;;;;;;;;;39.00;34.67;21.40;45.20;;;;;;5035675;28;8832;-73
2022/05/12 03:27:50;;;;;;;;;41.50;36.00;21.40;45.40;;;;;;5036876;28;9308;-72
2022/05/12 03:30:22;;;;;;;;;33.00;32.00;21.40;45.50;;;;;;5037777;28;8781;-72
2022/05/12 03:32:48;;;;;;;;;37.75;35.50;21.50;45.40;;;;;;5036911;28;8845;-72
2022/05/12 03:35:14;;;;;;;;;46.25;39.75;21.50;45.20;;;;;;5038206;28;8839;-72
2022/05/12 03:37:41;;;;;;;;;41.00;36.50;21.50;45.60;;;;;;5039640;28;8753;-72
2022/05/12 03:40:10;;;;;;;;;41.00;36.00;21.60;45.60;;;;;;5045804;28;8767;-72
2022/05/12 03:42:35;;;;;;;;;33.67;32.00;21.40;45.60;;;;;;5037905;28;8776;-72
2022/05/12 03:45:01;;;;;;;;;43.50;39.50;21.50;45.70;;;;;;5051573;28;8767;-72
2022/05/12 03:47:29;;;;;;;;;39.00;36.00;21.60;45.40;;;;;;5057522;28;8910;-72
2022/05/12 03:49:59;;;;;;;;;37.75;34.75;21.40;46.00;;;;;;5057645;28;9426;-72
2022/05/12 03:52:25;;;;;;;;;39.75;36.50;21.40;46.50;;;;;;5057445;28;8766;-72
2022/05/12 03:54:51;;;;;;;;;40.75;37.25;21.40;46.80;;;;;;5057317;28;8810;-73
2022/05/12 03:57:19;;;;;;;;;39.25;35.75;21.20;47.30;;;;;;5057484;28;8787;-73
2022/05/12 03:59:48;;;;;;;;;40.25;37.25;21.30;46.90;;;;;;5057234;28;8760;-73
2022/05/12 04:02:15;;;;;;;;;45.00;40.00;21.40;46.70;;;;;;5053348;28;8869;-73
2022/05/12 04:04:42;;;;;;;;;39.67;36.00;21.40;46.90;;;;;;5037147;28;8773;-73
2022/05/12 04:07:12;;;;;;;;;41.50;36.50;21.30;47.10;;;;;;5036971;28;8793;-73
2022/05/12 04:09:37;;;;;;;;;40.25;36.00;21.20;47.20;;;;;;5037044;28;8758;-73
2022/05/12 04:12:05;;;;;;;;;37.75;34.75;21.30;47.20;;;;;;5037271;28;8774;-73
2022/05/12 04:14:32;;;;;;;;;40.25;36.75;21.40;46.70;;;;;;5036745;28;8792;-73
2022/05/12 04:16:59;;;;;;;;;41.33;37.33;21.40;46.20;;;;;;5037144;28;8773;-73
2022/05/12 04:19:25;;;;;;;;;40.75;35.75;21.60;45.80;;;;;;5036913;28;8770;-73
2022/05/12 04:21:52;;;;;;;;;43.50;38.00;21.60;45.50;;;;;;5037082;28;8858;-73
2022/05/12 04:24:19;;;;;;;;;40.25;36.00;21.50;46.10;;;;;;5036736;28;8769;-73
2022/05/12 04:26:46;;;;;;;;;50.50;43.50;21.60;45.90;;;;;;5037009;28;8891;-73
2022/05/12 04:29:12;;;;;;;;;39.25;35.25;21.70;45.90;;;;;;5036699;28;8770;-73
2022/05/12 04:31:39;;;;;;;;;37.75;35.25;21.70;45.50;;;;;;5036396;28;8742;-73
2022/05/12 04:36:49;;;;;;;;;41.50;38.00;21.60;45.90;;;;;;5036643;28;8762;-73
2022/05/12 04:39:15;;;;;;;;;40.00;36.00;21.50;45.90;;;;;;5039711;28;8869;-74
2022/05/12 04:41:41;;;;;;;;;43.75;38.75;21.70;45.90;;;;;;5052445;28;8787;-73
2022/05/12 04:44:07;;;;;;;;;39.75;35.50;21.80;45.60;;;;;;5039882;28;9500;-74
2022/05/12 04:46:35;;;;;;;;;47.75;41.50;21.90;45.40;;;;;;5036358;28;8894;-74
2022/05/12 04:49:02;;;;;;;;;41.75;35.00;22.00;45.50;;;;;;5031139;28;8857;-75
2022/05/12 04:51:29;;;;;;;;;43.00;37.67;21.90;46.20;;;;;;5032222;28;9735;-77
2022/05/12 04:53:55;;;;;;;;;40.50;36.25;21.90;45.20;;;;;;5047201;28;8787;-77
2022/05/12 04:56:21;;;;;;;;;45.00;39.25;21.80;45.30;;;;;;5056386;28;8774;-77
2022/05/12 04:58:46;;;;;;;;;44.75;38.75;21.80;45.70;;;;;;5056236;28;8767;-77
2022/05/12 05:01:12;;;;;;;;;46.50;40.00;21.90;45.40;;;;;;5056023;28;8822;-76
2022/05/12 05:03:38;;;;;;;;;43.75;38.00;22.10;45.20;;;;;;5040577;28;8916;-76
2022/05/12 05:06:04;;;;;;;;;42.75;38.50;22.10;45.30;;;;;;5035902;28;9543;-75
2022/05/12 05:08:30;;;;;;;;;42.00;37.75;22.30;44.80;;;;;;5036640;28;8770;-76
2022/05/12 05:10:56;;;;;;;;;41.00;36.00;22.30;44.80;;;;;;5039773;28;8774;-75
2022/05/12 05:13:22;;;;;;;;;47.75;41.75;22.30;44.80;;;;;;5039307;28;8754;-77
2022/05/12 05:15:50;;;;;;;;;42.50;35.25;22.30;45.10;;;;;;5038412;28;8920;-79
2022/05/12 05:18:18;;;;;;;;;47.00;41.00;22.50;45.00;;;;;;5038794;28;8761;-78
2022/05/12 05:20:46;;;;;;;;;44.00;39.00;22.60;44.60;;;;;;5039328;28;8789;-78
2022/05/12 05:23:15;;;;;;;;;41.00;36.50;22.60;45.60;;;;;;5038922;28;8782;-78
2022/05/12 05:25:41;;;;;;;;;40.00;35.75;22.60;44.80;;;;;;5040265;28;8788;-76
2022/05/12 05:28:09;;;;;;;;;43.50;38.75;22.70;44.60;;;;;;5038989;28;8765;-75
2022/05/12 05:30:34;;;;;;;;;49.25;42.25;22.70;44.60;;;;;;5038021;28;8792;-79
2022/05/12 05:33:00;;;;;;;;;47.00;41.25;22.90;44.20;;;;;;5037310;28;8874;-80
2022/05/12 05:35:26;;;;;;;;;43.75;37.75;22.90;44.30;;;;;;5037531;28;8793;-77
2022/05/12 05:37:53;;;;;;;;;41.25;37.00;23.10;44.20;;;;;;5036641;28;8927;-77
2022/05/12 05:40:24;;;;;;;;;48.50;42.00;23.20;43.90;;;;;;5035971;28;8800;-78
2022/05/12 05:42:49;;;;;;;;;46.75;39.75;23.30;44.10;;;;;;5035481;28;8878;-77
2022/05/12 05:45:17;;;;;;;;;51.50;44.50;23.40;44.30;;;;;;5035068;28;8762;-78
2022/05/12 05:47:49;;;;;;;;;47.50;40.50;23.40;44.80;;;;;;5035099;28;8944;-78
2022/05/12 05:50:19;;;;;;;;;49.25;42.75;23.40;45.10;;;;;;5035450;28;8908;-78
2022/05/12 05:55:29;;;;;;;;;44.00;39.25;23.10;45.30;;;;;;5034907;28;8777;-79
2022/05/12 05:57:58;;;;;;;;;52.50;45.25;23.20;45.50;;;;;;5035190;28;8781;-76
2022/05/12 06:00:25;;;;;;;;;56.50;47.25;23.30;45.30;;;;;;5034858;28;8773;-79
2022/05/12 06:02:51;;;;;;;;;53.75;45.75;23.40;45.30;;;;;;5034789;28;8880;-79
2022/05/12 06:05:18;;;;;;;;;53.25;45.50;23.50;45.70;;;;;;5034866;28;8782;-78
2022/05/12 06:07:44;;;;;;;;;49.50;42.25;23.50;45.30;;;;;;5034890;28;8849;-79
2022/05/12 06:10:11;;;;;;;;;52.00;44.00;23.60;45.30;;;;;;5033753;28;9423;-78
2022/05/12 06:12:38;;;;;;;;;52.50;45.00;23.60;45.00;;;;;;5034695;28;8792;-79
2022/05/12 06:15:05;;;;;;;;;53.50;46.00;23.70;45.50;;;;;;5034344;28;8769;-78
2022/05/12 06:17:31;;;;;;;;;52.50;45.50;23.80;45.30;;;;;;5034665;28;8790;-78
2022/05/12 06:19:57;;;;;;;;;52.25;44.50;23.80;45.50;;;;;;5034887;28;8782;-79
2022/05/12 06:22:23;;;;;;;;;50.75;42.75;23.90;45.50;;;;;;5034785;28;8781;-78
2022/05/12 06:24:49;;;;;;;;;50.75;43.50;23.90;45.10;;;;;;5034869;28;8848;-79
2022/05/12 06:27:16;;;;;;;;;49.50;42.00;24.00;44.50;;;;;;5034516;28;8999;-80
2022/05/12 06:29:44;;;;;;;;;51.00;43.50;24.10;44.10;;;;;;5034456;28;8798;-80
2022/05/12 06:32:10;;;;;;;;;52.75;45.00;24.10;44.10;;;;;;5034510;28;8772;-77
2022/05/12 06:34:36;;;;;;;;;57.25;49.25;24.20;43.50;;;;;;5034085;28;8806;-79
2022/05/12 06:37:04;;;;;;;;;49.75;43.25;24.20;43.00;;;;;;5034439;28;8810;-78
2022/05/12 06:39:33;;;;;;;;;51.75;44.50;24.30;42.70;;;;;;5034563;28;8785;-80
2022/05/12 06:41:58;;;;;;;;;47.00;40.75;24.30;42.20;;;;;;5034425;28;9470;-79
2022/05/12 06:44:24;;;;;;;;;53.25;45.00;24.40;42.20;;;;;;5034506;28;8762;-80
2022/05/12 06:46:50;;;;;;;;;51.00;44.00;24.40;41.80;;;;;;5035097;28;8851;-74
2022/05/12 06:49:17;;;;;;;;;45.75;39.75;24.50;41.70;;;;;;5034512;28;8892;-73
2022/05/12 06:51:44;;;;;;;;;48.33;42.67;24.60;41.30;;;;;;5034450;28;8785;-73
2022/05/12 06:54:11;;;;;;;;;43.25;38.25;24.60;40.80;;;;;;5034274;28;8847;-73
2022/05/12 06:56:36;;;;;;;;;42.33;37.33;24.70;40.30;;;;;;5036716;28;9517;-73
2022/05/12 06:59:02;;;;;;;;;47.00;41.00;24.70;40.30;;;;;;5038292;28;8789;-73
2022/05/12 07:01:28;;;;;;;;;45.33;40.00;24.80;40.20;;;;;;5038536;28;8800;-73
2022/05/12 07:03:57;;;;;;;;;46.67;40.33;24.80;40.00;;;;;;5038388;28;8814;-74
2022/05/12 07:06:23;;;;;;;;;43.67;37.67;24.90;39.80;;;;;;5038227;28;8813;-74
2022/05/12 07:08:49;;;;;;;;;41.33;37.33;25.00;39.70;;;;;;5038232;28;8796;-74
2022/05/12 07:11:15;;;;;;;;;49.33;43.33;25.00;39.50;;;;;;5038369;28;8785;-73
2022/05/12 07:13:41;;;;;;;;;34.67;33.33;25.10;39.00;;;;;;5038104;28;8769;-74
2022/05/12 07:16:08;;;;;;;;;42.67;37.67;25.20;38.90;;;;;;5036971;28;8773;-74
2022/05/12 07:18:34;;;;;;;;;53.00;44.25;25.20;38.80;;;;;;5037970;28;8788;-74
2022/05/12 07:26:36;;;;;;;;;44.67;38.00;25.40;38.60;;;;;;5037898;28;8798;-74
2022/05/12 07:29:04;;;;;;;;;43.75;38.75;25.50;38.40;;;;;;5030742;28;8930;-74
2022/05/12 07:31:30;;;;;;;;;44.67;39.00;25.40;38.10;;;;;;5018048;28;8765;-74
2022/05/12 07:34:00;;;;;;;;;48.00;41.67;25.50;38.10;;;;;;5034889;28;8829;-74
2022/05/12 07:36:38;;;;;;;;;44.00;39.00;25.50;38.10;;;;;;5029173;28;8794;-74
2022/05/12 07:39:05;;;;;;;;;39.67;36.00;25.60;38.20;;;;;;5024711;28;8868;-73
2022/05/12 07:41:31;;;;;;;;;30.67;30.67;25.70;38.30;;;;;;5029306;28;8888;-74
2022/05/12 07:43:58;;;;;;;;;7.67;7.67;25.80;37.90;;;;;;5017919;28;8787;-74
2022/05/12 07:46:29;;;;;;;;;30.00;30.00;25.70;37.60;;;;;;5020280;28;8903;-74
2022/05/12 07:48:55;;;;;;;;;28.00;28.00;25.70;37.60;;;;;;5026495;28;8907;-73
2022/05/12 07:51:21;;;;;;;;;27.00;27.00;25.70;37.70;;;;;;5022215;28;8777;-75
2022/05/12 07:53:48;;;;;;;;;30.67;30.67;25.80;38.30;;;;;;5035806;28;8931;-74
2022/05/12 07:56:16;;;;;;;;;27.00;27.00;26.00;38.10;;;;;;5030145;28;8809;-75
2022/05/12 07:58:43;;;;;;;;;29.67;29.67;26.00;37.80;;;;;;5022787;28;8796;-77
2022/05/12 08:01:10;;;;;;;;;29.67;29.67;26.10;37.40;;;;;;5028060;28;9442;-77
2022/05/12 08:03:37;;;;;;;;;28.00;28.00;26.20;37.50;;;;;;5028771;28;8814;-75
2022/05/12 08:06:04;;;;;;;;;24.67;24.67;26.30;37.50;;;;;;5031062;28;9500;-76
2022/05/12 08:08:29;;;;;;;;;25.67;25.67;26.30;37.40;;;;;;5025568;28;8860;-75
2022/05/12 08:10:55;;;;;;;;;22.33;22.33;26.30;36.80;;;;;;5025840;28;8792;-77
2022/05/12 08:13:21;;;;;;;;;26.33;26.33;26.40;36.60;;;;;;5017213;28;8776;-76
2022/05/12 08:15:49;;;;;;;;;29.67;29.67;26.30;36.50;;;;;;5017135;28;8799;-77
2022/05/12 08:18:21;;;;;;;;;26.00;26.00;26.20;37.10;;;;;;5023041;28;8774;-76
2022/05/12 08:20:48;;;;;;;;;24.67;24.67;26.20;36.40;;;;;;5026321;28;8784;-76
2022/05/12 08:23:14;;;;;;;;;25.33;25.33;26.10;35.70;;;;;;5028984;28;8850;-78
2022/05/12 08:25:41;;;;;;;;;26.00;26.00;26.10;36.20;;;;;;5028739;28;8784;-79
2022/05/12 08:28:07;;;;;;;;;26.00;26.00;26.20;36.50;;;;;;5027676;28;8792;-75
2022/05/12 08:30:33;;;;;;;;;23.00;22.33;26.30;36.50;;;;;;5016747;28;8800;-73
2022/05/12 08:33:00;;;;;;;;;24.67;24.67;26.50;36.70;;;;;;5026002;28;8880;-73
2022/05/12 08:35:27;;;;;;;;;21.67;21.67;26.60;37.80;;;;;;5034065;28;8890;-73
2022/05/12 08:37:53;;;;;;;;;20.33;20.33;26.70;36.40;;;;;;5028119;28;8824;-74
2022/05/12 08:40:54;;;;;;;;;22.33;22.33;26.70;34.00;;;;;;5025686;28;8768;-73
2022/05/12 08:43:26;;;;;;;;;23.00;23.00;26.90;36.00;;;;;;5025686;28;8790;-73
2022/05/12 08:45:58;;;;;;;;;23.00;23.00;27.00;34.70;;;;;;5020646;28;8779;-74
2022/05/12 08:48:24;;;;;;;;;27.33;26.33;27.00;34.80;;;;;;5017556;28;8802;-73
2022/05/12 08:50:53;;;;;;;;;23.33;23.33;27.20;35.30;;;;;;5025251;28;8778;-74
2022/05/12 08:53:22;;;;;;;;;22.33;22.33;27.30;35.20;;;;;;5020969;28;8791;-73
2022/05/12 08:55:54;;;;;;;;;28.00;28.00;27.30;35.40;;;;;;5021182;28;8792;-72
2022/05/12 08:58:30;;;;;;;;;29.00;29.00;27.30;35.20;;;;;;5042032;28;8904;-73
2022/05/12 09:01:10;;;;;;;;;35.00;33.67;27.50;35.90;;;;;;5036394;28;8778;-72
2022/05/12 09:04:14;;;;;;;;;28.67;28.33;27.50;36.30;;;;;;5036019;28;8806;-75
2022/05/12 09:07:09;;;;;;;;;27.33;27.33;27.60;36.80;;;;;;5036063;28;8805;-74
2022/05/12 09:09:59;;;;;;;;;27.67;27.67;27.70;37.50;;;;;;4994157;28;8862;-74
2022/05/12 09:12:57;;;;;;;;;30.67;30.67;27.90;35.40;;;;;;4994380;28;8772;-77
2022/05/12 09:15:34;;;;;;;;;27.67;27.67;28.00;36.40;;;;;;4990198;28;8810;-77
2022/05/12 09:18:12;;;;;;;;;23.33;23.33;28.20;35.60;;;;;;4980466;28;8826;-80
2022/05/12 09:20:37;;;;;;;;;24.33;24.33;28.10;35.40;;;;;;4974895;28;8798;-75
2022/05/12 09:23:04;;;;;;;;;20.00;20.00;28.20;34.10;;;;;;4984683;28;8835;-80
2022/05/12 09:26:09;;;;;;;;;18.00;18.00;28.40;32.20;;;;;;4983002;28;8846;-80
2022/05/12 09:28:41;;;;;;;;;19.00;19.00;28.40;30.70;;;;;;4975952;28;8933;-75
2022/05/12 09:31:12;;;;;;;;;19.33;19.33;28.50;31.40;;;;;;4988368;28;9456;-79
2022/05/12 09:33:38;;;;;;;;;16.33;16.33;28.70;31.50;;;;;;4993514;28;8886;-77
2022/05/12 09:36:16;;;;;;;;;18.67;18.67;28.80;30.80;;;;;;4992168;28;8816;-78
2022/05/12 09:38:45;;;;;;;;;18.00;18.00;28.90;31.00;;;;;;4986210;28;8791;-81
2022/05/12 09:41:29;;;;;;;;;19.33;19.33;28.90;31.70;;;;;;4992052;28;8804;-77
2022/05/12 09:43:55;;;;;;;;;19.00;19.00;28.80;30.80;;;;;;4987925;28;8807;-78
2022/05/12 09:46:30;;;;;;;;;19.00;19.00;28.20;30.90;;;;;;5013389;28;8856;-79
2022/05/12 09:49:19;;;;;;;;;18.33;18.33;28.50;31.20;;;;;;5029531;28;8762;-81
2022/05/12 09:51:44;;;;;;;;;22.67;22.67;28.80;30.40;;;;;;5024527;28;8851;-78
2022/05/12 09:54:25;;;;;;;;;17.33;17.33;29.10;30.40;;;;;;5033871;28;8777;-80
2022/05/12 09:57:10;;;;;;;;;18.67;18.67;29.40;30.00;;;;;;5031671;28;8766;-78
2022/05/12 09:59:37;;;;;;;;;17.00;17.00;29.80;32.30;;;;;;5031854;28;11538;-78
2022/05/12 10:02:05;;;;;;;;;18.33;18.33;30.10;30.50;;;;;;5027657;28;8790;-78
2022/05/12 10:10:26;;;;;;;;;23.67;22.67;30.40;28.60;;;;;;5021062;28;8811;-75
2022/05/12 10:13:03;;;;;;;;;20.00;20.00;30.40;28.50;;;;;;5024083;28;8815;-76
2022/05/12 10:15:37;;;;;;;;;22.67;22.67;30.80;29.80;;;;;;5021503;28;8784;-77
2022/05/12 10:18:09;;;;;;;;;26.67;26.67;30.90;28.60;;;;;;5014899;28;9447;-75
2022/05/12 10:20:42;;;;;;;;;24.00;24.00;31.00;28.10;;;;;;5015516;28;9436;-79
2022/05/12 10:23:14;;;;;;;;;15.00;15.00;31.20;27.60;;;;;;5014533;28;8878;-74
2022/05/12 10:25:59;;;;;;;;;20.00;20.00;31.50;27.80;;;;;;5029762;28;9475;-78
2022/05/12 10:28:51;;;;;;;;;20.00;20.00;31.80;28.10;;;;;;5033281;28;11573;-78
2022/05/12 10:31:38;;;;;;;;;17.33;17.33;31.80;27.50;;;;;;5033981;28;8919;-74
2022/05/12 10:34:45;;;;;;;;;16.33;16.33;32.00;27.60;;;;;;5024214;28;11606;-73
2022/05/12 10:37:42;;;;;;;;;15.33;15.33;31.90;26.80;;;;;;5001805;28;11533;-74
2022/05/12 10:40:28;;;;;;;;;14.00;14.00;31.60;27.00;;;;;;5023227;28;11530;-73
2022/05/12 10:43:18;;;;;;;;;14.00;14.00;31.60;27.90;;;;;;5041125;28;11539;-74
2022/05/12 10:46:25;;;;;;;;;17.67;17.67;32.10;27.70;;;;;;5023734;28;11482;-74
2022/05/12 10:48:58;;;;;;;;;19.00;19.00;32.50;26.80;;;;;;5002571;28;11522;-73
2022/05/12 10:51:34;;;;;;;;;14.00;14.00;32.80;26.90;;;;;;5035900;28;8781;-74
2022/05/12 10:54:46;;;;;;;;;17.33;17.33;32.90;27.10;;;;;;5029004;28;11508;-73
2022/05/12 10:57:31;;;;;;;;;15.67;15.67;33.00;26.30;;;;;;5009942;28;8797;-74
2022/05/12 11:00:14;;;;;;;;;16.67;16.67;33.10;25.80;;;;;;5026915;28;11499;-76
2022/05/12 11:02:47;;;;;;;;;18.33;18.33;33.40;26.30;;;;;;5036882;28;11550;-76
2022/05/12 11:05:25;;;;;;;;;18.00;18.00;33.70;26.80;;;;;;5033067;28;11535;-76
2022/05/12 11:08:16;;;;;;;;;18.00;18.00;34.00;26.30;;;;;;5033833;28;11539;-76
2022/05/12 11:10:49;;;;;;;;;19.00;19.00;34.40;25.90;;;;;;5033846;28;11496;-74
2022/05/12 11:13:51;;;;;;;;;18.67;18.67;34.70;25.90;;;;;;5033665;28;11640;-76
2022/05/12 11:16:31;;;;;;;;;13.00;13.00;34.90;25.80;;;;;;5033700;28;12195;-76
2022/05/12 11:19:14;;;;;;;;;15.00;15.00;34.80;24.70;;;;;;5033497;28;11582;-76
2022/05/12 11:22:03;;;;;;;;;15.00;15.00;34.80;25.00;;;;;;5034025;28;11517;-76
2022/05/12 11:24:53;;;;;;;;;14.25;14.25;34.50;24.70;;;;;;5033421;28;12168;-75
2022/05/12 11:29:41;;;;;;;;;13.67;13.67;34.60;24.20;;;;;;5033782;28;11514;-76
2022/05/12 11:30:57;;;;;;;;;16.67;16.00;35.60;25.40;;;;;;5033492;28;11544;-76
2022/05/12 11:33:32;;;;;;;;;15.75;15.75;39.90;23.30;;;;;;5033473;28;11583;-74
2022/05/12 11:35:58;;;;;;;;;17.00;17.00;47.20;21.20;;;;;;5034079;28;11485;-75
2022/05/12 11:38:39;;;;;;;;;17.00;17.00;53.30;17.70;;;;;;5033440;28;11527;-76
2022/05/12 11:41:20;;;;;;;;;14.50;14.50;57.60;15.00;;;;;;5033712;28;11506;-76
2022/05/12 11:47:01;;;;;;;;;15.25;15.25;60.90;12.60;;;;;;5037665;28;11512;-76
2022/05/12 11:49:53;;;;;;;;;11.00;11.00;63.20;11.50;;;;;;5037556;28;12191;-76
2022/05/12 11:52:29;;;;;;;;;15.00;15.00;64.70;11.40;;;;;;5037255;28;11559;-75
2022/05/12 11:54:59;;;;;;;;;14.00;14.00;65.30;10.70;;;;;;5037597;28;11493;-77
2022/05/12 11:57:27;;;;;;;;;11.25;11.25;65.60;10.50;;;;;;5036918;28;11517;-77
2022/05/12 11:59:56;;;;;;;;;13.50;13.50;65.50;9.90;;;;;;5037521;28;11536;-76
2022/05/12 12:02:28;;;;;;;;;14.50;14.50;66.00;9.90;;;;;;5036904;28;11523;-77
2022/05/12 12:04:58;;;;;;;;;11.25;11.25;66.00;10.00;;;;;;5037340;28;11514;-76
2022/05/12 12:07:34;;;;;;;;;15.50;15.50;65.50;9.90;;;;;;5037345;28;11519;-75
2022/05/12 12:10:25;;;;;;;;;14.75;14.75;65.60;9.80;;;;;;5037113;28;11496;-75
2022/05/12 12:13:33;;;;;;;;;13.75;13.75;60.70;8.90;;;;;;5037076;28;11697;-75
2022/05/12 12:16:20;;;;;;;;;15.25;15.25;54.20;10.90;;;;;;4993789;28;11574;-75
2022/05/12 12:18:53;;;;;;;;;12.75;12.75;50.50;12.60;;;;;;4993936;28;11569;-75
2022/05/12 12:21:42;;;;;;;;;16.00;16.00;48.20;13.80;;;;;;4995290;28;11563;-75
2022/05/12 12:24:20;;;;;;;;;14.50;14.50;46.00;15.00;;;;;;4995199;28;11577;-76
2022/05/12 12:26:54;;;;;;;;;14.50;14.50;43.80;15.40;;;;;;4993863;28;11581;-74
2022/05/12 12:29:44;;;;;;;;;13.75;13.75;40.70;17.10;;;;;;4992822;28;11553;-75
2022/05/12 12:32:32;;;;;;;;;16.75;16.75;40.10;18.70;;;;;;4992678;28;11646;-75
2022/05/12 12:35:13;;;;;;;;;12.50;12.00;39.60;19.10;;;;;;4994312;28;11597;-74
2022/05/12 12:37:41;;;;;;;;;15.00;15.00;38.40;18.80;;;;;;4983658;28;11589;-75
2022/05/12 12:40:31;;;;;;;;;14.25;14.25;38.00;20.30;;;;;;4975262;28;11655;-74
2022/05/12 12:42:58;;;;;;;;;10.25;10.25;37.80;20.90;;;;;;4975125;28;11556;-75
2022/05/12 12:45:24;;;;;;;;;13.75;13.75;37.60;20.50;;;;;;4976181;28;12178;-74
2022/05/12 12:48:00;;;;;;;;;13.50;13.50;37.70;20.80;;;;;;4995424;28;12209;-73
2022/05/12 12:50:43;;;;;;;;;13.25;13.25;37.80;20.40;;;;;;5034368;28;11498;-73
2022/05/12 12:53:22;;;;;;;;;12.00;12.00;37.90;20.40;;;;;;5055196;28;11487;-74
2022/05/12 12:58:46;;;;;;;;;15.50;15.50;37.50;20.80;;;;;;5055767;28;11489;-74
2022/05/12 13:01:18;;;;;;;;;14.25;14.25;37.30;20.80;;;;;;5042924;28;11535;-73
2022/05/12 13:03:47;;;;;;;;;14.00;14.00;36.80;20.60;;;;;;5043410;28;11524;-75
2022/05/12 13:06:16;;;;;;;;;12.75;12.75;37.10;21.10;;;;;;5054444;28;12181;-74
2022/05/12 13:08:43;;;;;;;;;16.00;16.00;37.20;20.80;;;;;;5023214;28;11480;-73
2022/05/12 13:11:21;;;;;;;;;14.50;14.50;37.20;20.70;;;;;;5036919;28;11530;-75
2022/05/12 13:13:52;;;;;;;;;13.00;13.00;36.80;20.40;;;;;;5046830;28;11510;-75
2022/05/12 13:16:22;;;;;;;;;15.25;15.25;36.50;20.30;;;;;;5055090;28;11511;-74
2022/05/12 13:18:51;;;;;;;;;13.25;13.25;36.30;21.30;;;;;;5028513;28;11649;-75